createdAt,value
2023-01-17T12:24:49.968Z,76.09
2023-01-17T12:25:50.038Z,76.92
2023-01-17T12:26:50.210Z,75.71
2023-01-17T12:27:50.053Z,76.78
2023-01-17T12:28:50.244Z,75.29
2023-01-17T12:29:49.799Z,77.27
2023-01-17T12:30:49.728Z,73.15
2023-01-17T12:31:49.706Z,69.84
2023-01-17T12:32:49.707Z,71.39
2023-01-17T12:33:49.681Z,70.76
2023-01-17T12:34:49.697Z,70.66
2023-01-17T12:35:49.645Z,72.45
2023-01-17T12:36:49.769Z,68.60
2023-01-17T12:38:03.801Z,67.90
2023-01-17T12:38:49.642Z,69.79
2023-01-17T12:39:49.644Z,72.55
2023-01-17T12:40:49.625Z,74.04
2023-01-17T12:41:49.616Z,75.12
2023-01-17T12:42:49.561Z,77.17
2023-01-17T12:43:49.572Z,78.00
2023-01-17T12:44:49.582Z,78.07
2023-01-17T12:45:49.531Z,79.52
2023-01-17T12:46:49.589Z,78.14
2023-01-17T12:47:49.498Z,77.34
2023-01-17T12:48:49.534Z,76.68
2023-01-17T12:49:49.520Z,76.06
2023-01-17T12:50:49.502Z,74.77
2023-01-17T12:51:49.497Z,74.77
2023-01-17T12:52:49.528Z,73.42
2023-01-17T12:53:49.451Z,73.32
2023-01-17T12:54:49.484Z,72.80
2023-01-17T12:55:49.469Z,73.73
2023-01-17T12:56:49.492Z,74.77
2023-01-17T12:57:49.423Z,74.98
2023-01-17T12:58:49.373Z,74.11
2023-01-17T12:59:49.415Z,73.91
2023-01-17T13:00:49.470Z,74.11
2023-01-17T13:01:49.455Z,74.53
2023-01-17T13:02:49.387Z,74.18
2023-01-17T13:03:49.520Z,73.77
2023-01-17T13:04:58.395Z,72.05
2023-01-17T13:05:49.285Z,66.27
2023-01-17T13:06:49.315Z,62.68
2023-01-17T13:07:49.264Z,62.50
2023-01-17T13:08:49.253Z,60.68
2023-01-17T13:09:50.144Z,57.05
2023-01-17T13:10:49.227Z,55.90
2023-01-17T13:11:49.211Z,54.46
2023-01-17T13:12:49.237Z,51.42
2023-01-17T13:13:49.190Z,52.34
2023-01-17T13:14:49.185Z,50.99
2023-01-17T13:15:49.270Z,51.83
2023-01-17T13:16:49.154Z,51.98
2023-01-17T13:17:49.186Z,49.33
2023-01-17T13:18:49.148Z,47.04
2023-01-17T13:19:49.119Z,47.90
2023-01-17T13:20:49.116Z,48.24
2023-01-17T13:21:49.105Z,44.79
2023-01-17T13:22:50.770Z,48.08
2023-01-17T13:23:49.069Z,47.34
2023-01-17T13:24:49.063Z,46.73
2023-01-17T13:25:49.077Z,45.79
2023-01-17T13:26:49.053Z,45.73
2023-01-17T13:27:49.028Z,45.14
2023-01-17T13:28:49.030Z,43.53
2023-01-17T13:29:49.007Z,44.24
2023-01-17T13:30:49.065Z,42.14
2023-01-17T13:31:49.004Z,41.88
2023-01-17T13:32:48.958Z,41.54
2023-01-17T13:33:48.975Z,42.47
2023-01-17T13:34:48.944Z,40.50
2023-01-17T13:35:48.951Z,41.24
2023-01-17T13:36:48.990Z,39.62
2023-01-17T13:37:48.893Z,42.59
2023-01-17T13:38:48.904Z,43.79
2023-01-17T13:39:48.887Z,41.61
2023-01-17T13:40:48.863Z,41.82
2023-01-17T13:41:48.840Z,41.07
2023-01-17T13:42:48.888Z,42.25
2023-01-17T13:43:48.915Z,44.32
2023-01-17T13:44:48.901Z,47.91
2023-01-17T13:45:48.812Z,47.53
2023-01-17T13:46:49.094Z,54.02
2023-01-17T13:47:48.838Z,53.92
2023-01-17T13:48:48.767Z,51.87
2023-01-17T13:49:48.829Z,49.00
2023-01-17T13:50:48.754Z,48.69
2023-01-17T13:51:48.730Z,52.53
2023-01-17T13:52:48.723Z,53.74
2023-01-17T13:53:48.718Z,53.72
2023-01-17T13:54:48.770Z,51.34
2023-01-17T13:55:48.783Z,51.45
2023-01-17T13:56:48.860Z,52.50
2023-01-17T13:57:48.684Z,51.84
2023-01-17T13:58:50.765Z,53.53
2023-01-17T13:59:49.768Z,54.51
2023-01-17T14:00:50.946Z,54.20
2023-01-17T14:01:49.918Z,54.38
2023-01-17T14:02:53.703Z,54.72
2023-01-17T14:03:49.736Z,53.71
2023-01-17T14:04:49.894Z,53.87
2023-01-17T14:05:49.725Z,50.12
2023-01-17T14:06:49.702Z,51.98
2023-01-17T14:07:49.699Z,51.89
2023-01-17T14:08:49.715Z,52.71
2023-01-17T14:09:50.172Z,51.39
2023-01-17T14:10:49.732Z,47.16
2023-01-17T14:11:49.680Z,48.60
2023-01-17T14:12:49.601Z,48.21
2023-01-17T14:13:49.610Z,46.60
2023-01-17T14:14:49.612Z,46.78
2023-01-17T14:15:49.616Z,47.49
2023-01-17T14:16:49.605Z,47.84
2023-01-17T14:17:49.575Z,46.97
2023-01-17T14:18:49.771Z,46.83
2023-01-17T14:19:49.527Z,48.76
2023-01-17T14:20:49.546Z,51.64
2023-01-17T14:21:49.548Z,51.53
2023-01-17T14:22:49.712Z,49.82
2023-01-17T14:23:50.270Z,47.97
2023-01-17T14:24:50.290Z,47.63
2023-01-17T14:25:49.478Z,47.52
2023-01-17T14:26:49.488Z,46.75
2023-01-17T14:27:49.513Z,48.10
2023-01-17T14:28:50.099Z,46.03
2023-01-17T14:29:49.465Z,47.86
2023-01-17T14:30:49.443Z,49.01
2023-01-17T14:31:49.504Z,50.02
2023-01-17T14:32:49.408Z,50.99
2023-01-17T14:33:49.384Z,51.58
2023-01-17T14:34:49.360Z,50.24
2023-01-17T14:35:49.369Z,52.14
2023-01-17T14:36:49.357Z,54.58
2023-01-17T14:37:49.337Z,52.89
2023-01-17T14:38:49.322Z,49.76
2023-01-17T14:39:49.326Z,49.01
2023-01-17T14:40:49.306Z,48.89
2023-01-17T14:41:49.331Z,47.74
2023-01-17T14:42:49.258Z,50.58
2023-01-17T14:43:49.274Z,53.45
2023-01-17T14:44:49.213Z,54.33
2023-01-17T14:45:49.260Z,54.07
2023-01-17T14:46:49.244Z,52.69
2023-01-17T14:47:49.214Z,53.33
2023-01-17T14:48:49.242Z,54.86
2023-01-17T14:49:49.182Z,56.46
2023-01-17T14:50:49.245Z,57.45
2023-01-17T14:51:49.175Z,59.26
2023-01-17T14:52:49.166Z,61.02
2023-01-17T14:53:49.154Z,58.15
2023-01-17T14:54:49.146Z,57.32
2023-01-17T14:55:49.154Z,59.90
2023-01-17T14:56:49.102Z,59.39
2023-01-17T14:57:49.095Z,60.94
2023-01-17T14:58:49.060Z,61.54
2023-01-17T14:59:49.092Z,60.75
2023-01-17T15:00:49.166Z,57.70
2023-01-17T15:02:05.761Z,56.62
2023-01-17T15:02:50.222Z,56.10
2023-01-17T15:03:49.065Z,56.21
2023-01-17T15:04:49.021Z,57.70
2023-01-17T15:05:48.993Z,58.36
2023-01-17T15:06:49.010Z,61.24
2023-01-17T15:07:48.959Z,62.95
2023-01-17T15:08:48.974Z,64.40
2023-01-17T15:09:48.955Z,63.68
2023-01-17T15:10:48.934Z,63.99
2023-01-17T15:11:49.039Z,64.09
2023-01-17T15:12:48.923Z,65.16
2023-01-17T15:13:48.929Z,66.28
2023-01-17T15:14:48.875Z,67.91
2023-01-17T15:15:48.921Z,67.73
2023-01-17T15:16:48.916Z,68.77
2023-01-17T15:17:48.892Z,69.19
2023-01-17T15:18:48.881Z,69.19
2023-01-17T15:19:48.816Z,70.05
2023-01-17T15:20:48.828Z,71.27
2023-01-17T15:21:48.802Z,70.43
2023-01-17T15:22:48.834Z,70.57
2023-01-17T15:23:48.788Z,72.66
2023-01-17T15:24:48.800Z,72.83
2023-01-17T15:25:48.761Z,72.55
2023-01-17T15:26:48.737Z,72.13
2023-01-17T15:27:48.810Z,72.66
2023-01-17T15:28:48.705Z,74.11
2023-01-17T15:29:48.757Z,73.46
2023-01-17T15:30:51.344Z,73.35
2023-01-17T15:31:48.824Z,74.80
2023-01-17T15:32:48.677Z,75.57
2023-01-17T15:33:48.741Z,76.30
2023-01-17T15:34:48.723Z,76.82
2023-01-17T15:35:49.952Z,77.48
2023-01-17T15:39:41.199Z,77.83
2023-01-17T15:40:41.682Z,78.14
2023-01-17T15:41:40.332Z,78.87
2023-01-17T15:42:40.284Z,78.14
2023-01-17T15:43:40.393Z,78.87
2023-01-17T15:44:48.050Z,78.87
2023-01-17T15:45:40.287Z,78.91
2023-01-17T15:46:40.241Z,79.22
2023-01-17T15:47:40.268Z,79.80
2023-01-17T15:48:40.256Z,79.63
2023-01-17T15:49:40.282Z,80.26
2023-01-17T15:50:40.269Z,80.30
2023-01-17T15:51:40.270Z,80.61
2023-01-17T15:52:40.192Z,81.90
2023-01-17T15:53:40.398Z,82.21
2023-01-17T15:54:40.230Z,82.94
2023-01-17T15:55:41.007Z,83.15
2023-01-17T15:56:40.130Z,85.17
2023-01-17T15:57:40.420Z,85.06
2023-01-17T15:58:40.160Z,85.63
2023-01-17T15:59:40.223Z,85.59
2023-01-17T16:00:40.139Z,83.54
2023-01-17T16:01:40.287Z,83.54
2023-01-17T16:02:42.607Z,85.11
2023-01-17T16:03:40.116Z,85.21
